createdAt,value
2022-11-26T00:02:27.769Z,84.21
2022-11-26T00:04:58.633Z,84.11
2022-11-26T00:07:31.232Z,84.12
2022-11-26T00:10:00.676Z,84.00
2022-11-26T00:12:35.378Z,84.01
2022-11-26T00:15:22.733Z,84.09
2022-11-26T00:17:53.425Z,84.08
2022-11-26T00:20:28.488Z,83.83
2022-11-26T00:23:01.885Z,83.56
2022-11-26T00:25:47.195Z,83.23
2022-11-26T00:28:32.645Z,82.87
2022-11-26T00:31:05.716Z,82.76
2022-11-26T00:33:34.390Z,82.91
2022-11-26T00:36:18.813Z,83.05
2022-11-26T00:38:49.734Z,83.22
2022-11-26T00:41:22.219Z,83.35
2022-11-26T00:43:50.898Z,83.58
2022-11-26T00:46:22.426Z,83.56
2022-11-26T00:48:52.339Z,83.44
2022-11-26T00:51:27.877Z,83.49
2022-11-26T00:54:01.678Z,83.24
2022-11-26T00:56:36.585Z,83.40
2022-11-26T00:59:06.776Z,83.39
2022-11-26T01:01:35.434Z,83.03
2022-11-26T01:04:04.306Z,83.06
2022-11-26T01:06:37.838Z,83.13
2022-11-26T01:09:13.648Z,83.21
2022-11-26T01:11:42.201Z,83.17
2022-11-26T01:14:19.339Z,83.30
2022-11-26T01:16:48.955Z,83.33
2022-11-26T01:19:17.577Z,83.67
2022-11-26T01:21:46.203Z,83.67
2022-11-26T01:24:14.992Z,83.54
2022-11-26T01:26:45.223Z,83.98
2022-11-26T01:29:18.792Z,84.28
2022-11-26T01:31:48.159Z,84.12
2022-11-26T01:34:16.697Z,84.17
2022-11-26T01:36:45.143Z,84.21
2022-11-26T01:39:21.850Z,84.37
2022-11-26T01:42:24.473Z,84.28
2022-11-26T01:44:53.119Z,84.19
2022-11-26T01:47:30.045Z,84.20
2022-11-26T01:50:32.479Z,84.30
2022-11-26T01:53:04.840Z,84.40
2022-11-26T01:55:42.147Z,84.35
2022-11-26T01:58:16.613Z,84.25
2022-11-26T02:00:45.583Z,84.21
2022-11-26T02:03:14.253Z,84.10
2022-11-26T02:06:16.502Z,83.80
2022-11-26T02:08:48.463Z,83.53
2022-11-26T02:11:24.370Z,83.37
2022-11-26T02:13:59.456Z,83.21
2022-11-26T02:16:52.213Z,83.29
2022-11-26T02:19:57.959Z,83.27
2022-11-26T02:22:55.531Z,83.15
2022-11-26T02:26:10.417Z,83.19
2022-11-26T02:29:18.092Z,83.04
2022-11-26T02:32:07.833Z,83.11
2022-11-26T02:34:41.524Z,83.37
2022-11-26T02:37:20.505Z,83.39
2022-11-26T02:39:49.388Z,83.43
2022-11-26T02:42:34.668Z,83.19
2022-11-26T02:45:16.545Z,83.38
2022-11-26T02:47:49.777Z,83.35
2022-11-26T02:50:47.112Z,83.54
2022-11-26T02:53:19.386Z,83.50
2022-11-26T02:55:55.597Z,83.80
2022-11-26T02:58:24.221Z,83.59
2022-11-26T03:00:55.403Z,83.54
2022-11-26T03:03:30.368Z,83.59
2022-11-26T03:06:11.680Z,83.52
2022-11-26T03:08:40.577Z,83.34
2022-11-26T03:11:09.118Z,83.31
2022-11-26T03:13:37.634Z,83.41
2022-11-26T03:16:06.780Z,83.26
2022-11-26T03:18:35.421Z,83.19
2022-11-26T03:21:04.101Z,83.18
2022-11-26T03:23:32.893Z,83.25
2022-11-26T03:26:02.013Z,83.18
2022-11-26T03:28:30.780Z,83.24
2022-11-26T03:30:59.355Z,83.49
2022-11-26T03:33:28.083Z,83.42
2022-11-26T03:35:56.833Z,83.27
2022-11-26T03:38:25.516Z,83.40
2022-11-26T03:41:03.220Z,83.19
2022-11-26T03:43:31.795Z,83.36
2022-11-26T03:46:00.535Z,83.44
2022-11-26T03:48:29.167Z,83.67
2022-11-26T03:50:58.058Z,83.68
2022-11-26T03:53:26.550Z,83.93
2022-11-26T03:55:55.330Z,83.86
2022-11-26T03:58:23.877Z,84.28
2022-11-26T04:00:52.597Z,84.29
2022-11-26T04:03:21.102Z,84.20
2022-11-26T04:05:49.817Z,84.12
2022-11-26T04:08:20.497Z,84.11
2022-11-26T04:10:49.180Z,84.14
2022-11-26T04:13:17.861Z,84.21
2022-11-26T04:15:48.166Z,84.53
2022-11-26T04:18:17.111Z,84.76
2022-11-26T04:20:48.808Z,84.87
2022-11-26T04:23:21.617Z,84.99
2022-11-26T04:25:50.458Z,85.20
2022-11-26T04:28:19.092Z,85.30
2022-11-26T04:30:47.773Z,85.11
2022-11-26T04:33:16.365Z,85.32
2022-11-26T04:35:45.050Z,85.26
2022-11-26T04:38:13.733Z,85.49
2022-11-26T04:40:42.416Z,85.49
2022-11-26T04:43:11.017Z,85.60
2022-11-26T04:45:40.054Z,85.19
2022-11-26T04:48:10.015Z,85.39
2022-11-26T04:50:38.491Z,85.52
2022-11-26T04:53:07.380Z,85.22
2022-11-26T04:55:36.169Z,85.42
2022-11-26T04:58:04.856Z,85.60
2022-11-26T05:00:33.437Z,86.00
2022-11-26T05:03:02.147Z,86.33
2022-11-26T05:05:30.809Z,86.31
2022-11-26T05:07:59.393Z,86.52
2022-11-26T05:10:28.183Z,86.98
2022-11-26T05:12:56.762Z,86.94
2022-11-26T05:15:26.363Z,86.76
2022-11-26T05:17:55.059Z,86.30
2022-11-26T05:20:24.494Z,86.25
2022-11-26T05:22:53.146Z,86.20
2022-11-26T05:25:21.726Z,86.20
2022-11-26T05:27:50.309Z,85.96
2022-11-26T05:30:19.031Z,85.89
2022-11-26T05:32:47.608Z,85.87
2022-11-26T05:35:16.467Z,85.64
2022-11-26T05:37:45.162Z,85.82
2022-11-26T05:40:14.078Z,85.71
2022-11-26T05:42:43.609Z,85.56
2022-11-26T05:45:12.325Z,85.63
2022-11-26T05:47:41.023Z,85.64
2022-11-26T05:50:10.353Z,85.40
2022-11-26T05:52:39.006Z,85.31
2022-11-26T05:55:08.979Z,85.25
2022-11-26T05:57:38.150Z,85.10
2022-11-26T06:00:08.110Z,84.93
2022-11-26T06:02:40.376Z,84.97
2022-11-26T06:05:09.604Z,84.78
2022-11-26T06:07:43.330Z,84.60
2022-11-26T06:10:14.106Z,84.76
2022-11-26T06:12:42.724Z,84.67
2022-11-26T06:15:11.538Z,84.60
2022-11-26T06:17:40.193Z,84.57
2022-11-26T06:20:09.322Z,84.58
2022-11-26T06:22:40.245Z,84.23
2022-11-26T06:25:12.053Z,83.87
2022-11-26T06:27:41.562Z,83.62
2022-11-26T06:30:14.298Z,83.88
2022-11-26T06:32:42.859Z,83.83
2022-11-26T06:35:11.329Z,83.64
2022-11-26T06:37:40.061Z,83.62
2022-11-26T06:40:16.016Z,83.51
2022-11-26T06:42:52.880Z,83.41
2022-11-26T06:45:23.475Z,83.47
2022-11-26T06:47:53.157Z,83.00
2022-11-26T06:50:23.441Z,82.77
2022-11-26T06:52:53.982Z,82.69
2022-11-26T06:55:22.753Z,82.18
2022-11-26T06:57:52.536Z,81.86
2022-11-26T07:00:22.207Z,82.04
2022-11-26T07:02:50.732Z,81.88
2022-11-26T07:05:19.326Z,81.87
2022-11-26T07:07:47.808Z,82.14
2022-11-26T07:10:16.587Z,81.86
2022-11-26T07:12:45.089Z,82.00
2022-11-26T07:15:14.159Z,81.56
2022-11-26T07:17:42.705Z,81.28
2022-11-26T07:20:12.063Z,81.33
2022-11-26T07:22:40.600Z,81.64
2022-11-26T07:25:12.549Z,81.88
2022-11-26T07:27:41.580Z,82.00
2022-11-26T07:30:10.741Z,81.94
2022-11-26T07:32:39.790Z,82.08
2022-11-26T07:35:08.538Z,82.01
2022-11-26T07:37:37.353Z,82.05
2022-11-26T07:40:07.042Z,81.77
2022-11-26T07:42:35.506Z,81.79
2022-11-26T07:45:04.849Z,82.01
2022-11-26T07:47:33.690Z,81.56
2022-11-26T07:50:03.345Z,81.45
2022-11-26T07:52:31.750Z,80.46
2022-11-26T07:55:00.191Z,80.61
2022-11-26T07:57:28.894Z,80.85
2022-11-26T07:59:57.386Z,80.15
2022-11-26T08:02:25.997Z,79.85
2022-11-26T08:04:54.528Z,79.28
2022-11-26T08:07:27.797Z,79.79
2022-11-26T08:09:57.943Z,79.25
2022-11-26T08:12:26.706Z,79.54
2022-11-26T08:14:55.423Z,79.48
2022-11-26T08:17:23.900Z,79.02
2022-11-26T08:19:52.506Z,78.77
2022-11-26T08:22:20.986Z,78.72
2022-11-26T08:24:50.577Z,79.06
2022-11-26T08:27:19.364Z,78.69
2022-11-26T08:29:47.915Z,78.59
2022-11-26T08:32:16.342Z,78.37
2022-11-26T08:34:44.842Z,77.97
2022-11-26T08:37:13.329Z,78.09
2022-11-26T08:39:41.796Z,78.45
2022-11-26T08:42:10.198Z,78.71
2022-11-26T08:44:38.717Z,78.61
2022-11-26T08:47:07.557Z,77.56
2022-11-26T08:49:36.098Z,77.38
2022-11-26T08:52:04.902Z,77.19
2022-11-26T08:54:33.666Z,77.23
2022-11-26T08:57:02.244Z,76.21
2022-11-26T08:59:30.663Z,76.01
2022-11-26T09:01:59.181Z,76.72
2022-11-26T09:04:27.887Z,76.63
2022-11-26T09:06:56.385Z,75.91
2022-11-26T09:09:24.889Z,76.05
2022-11-26T09:11:59.777Z,75.96
2022-11-26T09:14:31.657Z,75.81
2022-11-26T09:17:00.525Z,76.17
2022-11-26T09:19:29.548Z,75.73
2022-11-26T09:21:59.110Z,75.16
2022-11-26T09:24:27.633Z,75.14
2022-11-26T09:26:56.190Z,75.38
2022-11-26T09:29:25.067Z,75.29
2022-11-26T09:32:23.396Z,74.64
2022-11-26T09:34:42.691Z,74.18
2022-11-26T09:37:13.112Z,74.14
2022-11-26T09:39:41.594Z,74.87
2022-11-26T09:42:46.283Z,75.05
2022-11-26T09:45:38.540Z,74.25
2022-11-26T09:48:15.898Z,74.81
2022-11-26T09:50:48.150Z,74.76
2022-11-26T09:53:30.881Z,74.62
2022-11-26T09:56:02.090Z,74.04
2022-11-26T09:58:51.828Z,73.98
2022-11-26T10:01:23.107Z,74.42
2022-11-26T10:03:52.663Z,74.67
2022-11-26T10:06:51.288Z,74.41
2022-11-26T10:10:01.107Z,73.98
2022-11-26T10:13:21.803Z,73.60
2022-11-26T10:16:06.562Z,73.70
2022-11-26T10:18:53.314Z,73.98
2022-11-26T10:21:57.215Z,74.36
2022-11-26T10:24:36.983Z,74.19
2022-11-26T10:27:14.709Z,74.62
2022-11-26T10:29:48.901Z,75.00
2022-11-26T10:32:35.433Z,74.44
2022-11-26T10:35:04.284Z,74.70
2022-11-26T10:37:33.042Z,74.37
2022-11-26T10:40:20.358Z,74.82
2022-11-26T10:43:14.373Z,75.12
2022-11-26T10:45:57.481Z,74.78
2022-11-26T10:48:32.526Z,74.50
2022-11-26T10:51:26.738Z,75.02
2022-11-26T10:54:02.814Z,75.09
2022-11-26T10:56:42.552Z,75.45
2022-11-26T10:59:28.889Z,75.60
2022-11-26T11:02:04.504Z,75.86
2022-11-26T11:04:40.698Z,75.30
2022-11-26T11:07:38.646Z,74.78
2022-11-26T11:10:12.882Z,75.06
2022-11-26T11:12:44.065Z,75.32
2022-11-26T11:15:18.540Z,75.36
2022-11-26T11:18:05.321Z,75.57
2022-11-26T11:20:38.219Z,75.88
2022-11-26T11:23:12.735Z,75.76
2022-11-26T11:26:06.365Z,75.78
2022-11-26T11:28:42.909Z,76.22
2022-11-26T11:31:12.210Z,76.46
2022-11-26T11:33:41.155Z,76.25
2022-11-26T11:36:15.609Z,76.36
2022-11-26T11:38:58.977Z,76.56
2022-11-26T11:41:31.518Z,76.34
2022-11-26T11:44:49.285Z,76.33
2022-11-26T11:47:48.646Z,75.70
2022-11-26T11:50:42.261Z,75.12
2022-11-26T11:53:47.265Z,74.79
2022-11-26T11:56:26.983Z,74.98
2022-11-26T11:59:14.290Z,74.63
2022-11-26T12:02:12.102Z,74.66
2022-11-26T12:05:10.024Z,75.10
2022-11-26T12:07:43.019Z,75.49
2022-11-26T12:10:24.645Z,75.66
2022-11-26T12:12:58.844Z,75.65
2022-11-26T12:15:33.894Z,75.42
2022-11-26T12:18:27.143Z,75.15
2022-11-26T12:21:04.393Z,75.07
2022-11-26T12:23:38.943Z,75.58
2022-11-26T12:26:35.188Z,75.64
2022-11-26T12:29:39.921Z,75.41
2022-11-26T12:32:34.960Z,75.87
2022-11-26T12:35:28.601Z,75.80
2022-11-26T12:38:04.290Z,75.14
2022-11-26T12:40:41.035Z,75.48
2022-11-26T12:43:23.738Z,75.58
2022-11-26T12:46:09.185Z,75.28
2022-11-26T12:49:36.627Z,75.25
2022-11-26T12:52:13.982Z,75.12
2022-11-26T12:55:02.529Z,75.78
2022-11-26T12:57:47.698Z,75.55
2022-11-26T13:00:25.628Z,75.59
2022-11-26T13:02:56.388Z,75.49
2022-11-26T13:05:56.451Z,75.63
2022-11-26T13:09:00.218Z,76.04
2022-11-26T13:11:42.706Z,76.25
2022-11-26T13:14:35.634Z,76.08
2022-11-26T13:17:19.697Z,76.36
2022-11-26T13:20:23.678Z,76.98
2022-11-26T13:23:24.216Z,76.97
2022-11-26T13:26:30.067Z,77.13
2022-11-26T13:29:18.845Z,77.10
2022-11-26T13:32:11.325Z,77.25
2022-11-26T13:35:14.974Z,77.18
2022-11-26T13:38:21.128Z,77.86
2022-11-26T13:41:17.020Z,77.97
2022-11-26T13:44:23.676Z,78.15
2022-11-26T13:47:18.228Z,78.29
2022-11-26T13:50:04.533Z,78.13
2022-11-26T13:53:17.156Z,78.35
2022-11-26T13:55:55.145Z,78.41
2022-11-26T13:58:31.041Z,79.00
2022-11-26T14:01:40.614Z,79.35
2022-11-26T14:04:13.501Z,79.52
2022-11-26T14:07:06.448Z,79.75
2022-11-26T14:09:47.276Z,79.73
2022-11-26T14:12:21.029Z,80.24
2022-11-26T14:14:52.854Z,80.39
2022-11-26T14:17:32.473Z,80.54
2022-11-26T14:20:01.381Z,80.32
2022-11-26T14:22:39.253Z,80.58
2022-11-26T14:25:13.005Z,80.91
2022-11-26T14:27:52.200Z,80.89
2022-11-26T14:30:26.618Z,81.00
2022-11-26T14:33:19.216Z,80.90
2022-11-26T14:35:57.169Z,81.23
2022-11-26T14:38:28.857Z,81.18
2022-11-26T14:41:00.463Z,81.40
2022-11-26T14:43:29.858Z,81.18
2022-11-26T14:46:06.525Z,81.29
2022-11-26T14:48:41.988Z,81.46
2022-11-26T14:51:10.962Z,81.49
2022-11-26T14:53:48.222Z,81.83
2022-11-26T14:56:20.088Z,81.71
2022-11-26T14:58:59.464Z,81.82
2022-11-26T15:01:29.811Z,82.05
2022-11-26T15:04:07.034Z,82.12
2022-11-26T15:06:43.377Z,81.87
2022-11-26T15:09:15.648Z,81.72
2022-11-26T15:11:54.436Z,81.36
2022-11-26T15:14:39.341Z,81.03
2022-11-26T15:17:13.542Z,80.80
2022-11-26T15:19:42.841Z,80.81
2022-11-26T15:22:44.704Z,80.79
2022-11-26T15:25:28.029Z,80.72
2022-11-26T15:28:07.030Z,80.56
2022-11-26T15:30:38.785Z,80.26
2022-11-26T15:33:13.006Z,80.32
2022-11-26T15:35:41.971Z,80.36
2022-11-26T15:38:16.129Z,80.49
2022-11-26T15:40:50.192Z,80.55
2022-11-26T15:43:24.767Z,80.68
2022-11-26T15:45:59.035Z,80.57
2022-11-26T15:48:53.401Z,80.70
2022-11-26T15:51:32.178Z,80.74
2022-11-26T15:54:22.249Z,80.38
2022-11-26T15:56:57.401Z,80.65
2022-11-26T15:59:30.390Z,80.44
2022-11-26T16:02:13.417Z,80.54
2022-11-26T16:04:56.533Z,80.81
2022-11-26T16:07:29.177Z,81.01
2022-11-26T16:10:19.532Z,81.08
2022-11-26T16:13:19.143Z,81.38
2022-11-26T16:15:51.685Z,81.40
2022-11-26T16:18:25.321Z,81.52
2022-11-26T16:21:08.407Z,81.44
2022-11-26T16:23:37.397Z,81.50
2022-11-26T16:26:25.163Z,81.74
2022-11-26T16:28:53.880Z,81.83
2022-11-26T16:31:22.680Z,81.72
2022-11-26T16:33:51.392Z,81.87
2022-11-26T16:36:26.698Z,82.40
2022-11-26T16:38:55.134Z,82.16
2022-11-26T16:41:23.905Z,82.51
2022-11-26T16:43:52.985Z,82.30
2022-11-26T16:46:24.508Z,82.41
2022-11-26T16:48:53.086Z,82.32
2022-11-26T16:51:22.395Z,82.65
2022-11-26T16:53:51.020Z,82.92
2022-11-26T16:56:27.790Z,83.15
2022-11-26T16:58:59.690Z,83.13
2022-11-26T17:01:28.234Z,83.07
2022-11-26T17:03:56.695Z,83.17
2022-11-26T17:06:34.340Z,83.07
2022-11-26T17:09:03.241Z,83.21
2022-11-26T17:11:31.783Z,83.47
2022-11-26T17:14:00.154Z,83.13
2022-11-26T17:16:29.437Z,83.65
2022-11-26T17:18:57.990Z,83.65
2022-11-26T17:21:26.430Z,84.02
2022-11-26T17:23:54.908Z,84.20
2022-11-26T17:26:25.045Z,84.08
2022-11-26T17:28:53.633Z,84.39
2022-11-26T17:31:22.056Z,84.45
2022-11-26T17:33:51.462Z,84.49
2022-11-26T17:36:22.808Z,84.52
2022-11-26T17:38:52.086Z,84.45
2022-11-26T17:41:20.626Z,84.48
2022-11-26T17:43:49.142Z,84.88
2022-11-26T17:46:21.595Z,84.51
2022-11-26T17:48:54.302Z,84.69
2022-11-26T17:51:25.494Z,84.40
2022-11-26T17:53:54.032Z,84.49
2022-11-26T17:56:24.768Z,84.47
2022-11-26T17:58:53.909Z,84.52
2022-11-26T18:01:22.834Z,84.61
2022-11-26T18:03:52.893Z,84.37
2022-11-26T18:07:05.997Z,84.44
2022-11-26T18:09:35.109Z,84.22
2022-11-26T18:12:04.769Z,84.18
2022-11-26T18:14:36.014Z,84.02
2022-11-26T18:17:05.227Z,84.00
2022-11-26T18:19:33.880Z,84.05
2022-11-26T18:22:02.589Z,84.17
2022-11-26T18:24:31.963Z,84.12
2022-11-26T18:27:00.494Z,84.19
2022-11-26T18:29:30.496Z,84.36
2022-11-26T18:31:59.145Z,84.64
2022-11-26T18:34:27.632Z,85.08
2022-11-26T18:36:56.312Z,84.83
2022-11-26T18:39:24.775Z,85.16
2022-11-26T18:42:00.772Z,85.40
2022-11-26T18:44:41.830Z,85.44
2022-11-26T18:47:10.320Z,85.57
2022-11-26T18:49:40.461Z,85.36
2022-11-26T18:52:12.206Z,85.31
2022-11-26T18:54:40.610Z,85.17
2022-11-26T18:57:08.999Z,85.42
2022-11-26T18:59:37.958Z,85.42
2022-11-26T19:02:06.680Z,85.37
2022-11-26T19:04:35.510Z,85.43
2022-11-26T19:07:03.988Z,85.18
2022-11-26T19:09:32.679Z,84.93
2022-11-26T19:12:01.502Z,84.95
2022-11-26T19:14:29.915Z,85.10
2022-11-26T19:16:58.564Z,85.13
2022-11-26T19:19:27.995Z,84.92
2022-11-26T19:22:00.949Z,85.24
2022-11-26T19:24:30.672Z,85.10
2022-11-26T19:26:59.412Z,84.81
2022-11-26T19:29:28.041Z,84.92
2022-11-26T19:31:56.434Z,84.93
2022-11-26T19:34:24.895Z,84.97
2022-11-26T19:36:57.880Z,85.14
2022-11-26T19:39:26.627Z,85.14
2022-11-26T19:41:55.636Z,85.24
2022-11-26T19:44:24.418Z,85.37
2022-11-26T19:46:53.200Z,85.49
2022-11-26T19:49:21.780Z,85.68
2022-11-26T19:51:50.658Z,85.14
2022-11-26T19:54:19.760Z,85.54
2022-11-26T19:56:48.555Z,85.23
2022-11-26T19:59:19.526Z,84.96
2022-11-26T20:01:48.278Z,85.00
2022-11-26T20:04:18.385Z,85.00
2022-11-26T20:06:47.110Z,84.98
2022-11-26T20:09:15.802Z,85.04
2022-11-26T20:11:44.564Z,85.00
2022-11-26T20:14:14.598Z,85.08
2022-11-26T20:16:45.107Z,84.83
2022-11-26T20:19:13.566Z,84.93
2022-11-26T20:21:42.021Z,84.75
2022-11-26T20:24:16.851Z,84.81
2022-11-26T20:26:47.357Z,84.60
2022-11-26T20:29:17.317Z,84.90
2022-11-26T20:31:53.204Z,84.43
2022-11-26T20:34:26.448Z,84.63
2022-11-26T20:36:55.222Z,84.32
2022-11-26T20:39:24.468Z,84.47
2022-11-26T20:41:52.951Z,84.52
2022-11-26T20:44:23.482Z,84.36
2022-11-26T20:46:51.966Z,84.55
2022-11-26T20:49:20.850Z,84.52
2022-11-26T20:51:49.838Z,84.73
2022-11-26T20:54:18.335Z,84.99
2022-11-26T20:56:46.909Z,85.25
2022-11-26T20:59:15.593Z,85.22
2022-11-26T21:01:44.122Z,85.44
2022-11-26T21:04:13.066Z,85.67
2022-11-26T21:06:43.470Z,85.76
2022-11-26T21:09:13.816Z,85.82
2022-11-26T21:11:42.245Z,85.55
2022-11-26T21:14:14.952Z,85.53
2022-11-26T21:16:43.884Z,84.79
2022-11-26T21:19:13.166Z,84.86
2022-11-26T21:21:42.262Z,84.84
2022-11-26T21:24:10.953Z,85.21
2022-11-26T21:26:39.530Z,85.16
2022-11-26T21:29:08.113Z,84.97
2022-11-26T21:31:36.902Z,85.25
2022-11-26T21:34:08.352Z,85.15
2022-11-26T21:36:37.587Z,85.30
2022-11-26T21:39:06.838Z,85.32
2022-11-26T21:41:36.370Z,85.49
2022-11-26T21:44:05.352Z,85.76
2022-11-26T21:46:38.598Z,85.83
2022-11-26T21:49:08.408Z,85.49
2022-11-26T21:51:37.548Z,85.59
2022-11-26T21:54:06.172Z,85.51
2022-11-26T21:56:34.626Z,85.23
2022-11-26T21:59:03.194Z,85.04
2022-11-26T22:01:35.527Z,84.87
2022-11-26T22:04:17.531Z,84.58
2022-11-26T22:06:48.945Z,84.31
2022-11-26T22:09:17.938Z,84.23
2022-11-26T22:11:46.898Z,84.49
2022-11-26T22:14:17.323Z,84.20
2022-11-26T22:16:48.213Z,84.50
2022-11-26T22:19:16.845Z,84.29
2022-11-26T22:21:45.485Z,84.07
2022-11-26T22:24:18.154Z,83.96
2022-11-26T22:26:48.118Z,84.17
2022-11-26T22:29:19.416Z,84.05
2022-11-26T22:31:48.609Z,83.94
2022-11-26T22:34:22.268Z,84.15
2022-11-26T22:36:51.280Z,83.37
2022-11-26T22:39:20.349Z,83.19
2022-11-26T22:41:49.480Z,83.19
2022-11-26T22:44:18.729Z,82.82
2022-11-26T22:46:47.446Z,82.36
2022-11-26T22:49:19.132Z,82.55
2022-11-26T22:51:47.885Z,82.62
2022-11-26T22:54:19.163Z,82.65
2022-11-26T22:56:47.545Z,82.71
2022-11-26T22:59:15.998Z,82.86
2022-11-26T23:01:44.685Z,82.86
2022-11-26T23:04:13.156Z,82.77
2022-11-26T23:06:41.841Z,82.96
2022-11-26T23:09:13.845Z,82.66
2022-11-26T23:11:43.652Z,82.45
2022-11-26T23:14:12.414Z,82.27
2022-11-26T23:16:42.957Z,82.23
2022-11-26T23:19:16.402Z,82.17
2022-11-26T23:21:47.017Z,82.23
2022-11-26T23:24:16.397Z,82.34
2022-11-26T23:26:45.330Z,82.31
2022-11-26T23:29:14.150Z,82.40
2022-11-26T23:31:44.798Z,82.69
2022-11-26T23:34:13.917Z,82.71
2022-11-26T23:36:43.079Z,82.54
2022-11-26T23:39:13.501Z,82.52
2022-11-26T23:41:42.175Z,83.09
2022-11-26T23:44:10.652Z,83.13
2022-11-26T23:46:39.173Z,82.68
2022-11-26T23:49:07.638Z,82.83
2022-11-26T23:51:36.029Z,82.75
2022-11-26T23:54:04.749Z,82.87
2022-11-26T23:56:35.972Z,83.14
2022-11-26T23:59:05.359Z,83.75
